Time;durP1;ratioP1;P1;durP2;ratioP2;P2;SDS_P1;SDS_P2;PMS_P1;PMS_P2;Temp;Humidity;BMP_temperature;BMP_pressure;BME280_temperature;BME280_humidity;BME280_pressure;Samples;Min_cycle;Max_cycle;Signal;HPM_P1;HPM_P2
2021/05/26 00:00:32;;;;;;;3.65;0.60;;;11.50;67.80;;;;;;5052564;28;20079;-74
2021/05/26 00:02:58;;;;;;;2.70;0.63;;;11.50;68.00;;;;;;5044199;28;20040;-74
2021/05/26 00:05:23;;;;;;;4.60;0.77;;;11.50;68.20;;;;;;5036275;28;20264;-75
2021/05/26 00:07:49;;;;;;;2.50;0.77;;;11.50;68.40;;;;;;5041726;28;20359;-75
2021/05/26 00:10:18;;;;;;;1.58;0.57;;;11.40;68.60;;;;;;5047606;28;20025;-73
2021/05/26 00:12:43;;;;;;;1.70;0.65;;;11.40;68.90;;;;;;5048864;28;20021;-72
2021/05/26 00:15:10;;;;;;;2.55;0.70;;;11.50;69.20;;;;;;5040661;28;20068;-75
2021/05/26 00:17:36;;;;;;;1.77;0.70;;;11.50;69.50;;;;;;5052891;28;20037;-75
2021/05/26 00:20:03;;;;;;;2.55;0.70;;;11.50;69.50;;;;;;5051645;28;20033;-73
2021/05/26 00:22:31;;;;;;;1.98;0.68;;;11.60;69.60;;;;;;5052011;28;20082;-73
2021/05/26 00:24:57;;;;;;;4.75;0.82;;;11.60;69.60;;;;;;5051831;28;20033;-73
2021/05/26 00:27:23;;;;;;;2.47;0.98;;;11.60;69.80;;;;;;5047866;28;20041;-74
2021/05/26 00:29:49;;;;;;;3.72;1.00;;;11.60;70.00;;;;;;5032525;28;20046;-73
2021/05/26 00:32:15;;;;;;;5.68;0.60;;;11.60;70.00;;;;;;5050251;28;20048;-74
2021/05/26 00:34:40;;;;;;;2.20;0.95;;;11.60;70.10;;;;;;5050671;28;20462;-75
2021/05/26 00:37:06;;;;;;;5.10;1.02;;;11.60;70.10;;;;;;5033315;28;20033;-73
2021/05/26 00:39:32;;;;;;;3.88;0.68;;;11.60;70.30;;;;;;5046827;28;20021;-74
2021/05/26 00:41:58;;;;;;;1.63;0.63;;;11.60;70.60;;;;;;5050618;28;20052;-74
2021/05/26 00:44:24;;;;;;;2.85;0.60;;;11.60;70.80;;;;;;5038750;28;20044;-74
2021/05/26 00:46:50;;;;;;;1.20;0.63;;;11.50;70.70;;;;;;5018868;28;20025;-74
2021/05/26 00:49:16;;;;;;;3.45;0.60;;;11.60;70.80;;;;;;5031461;28;20030;-74
2021/05/26 00:51:41;;;;;;;1.85;0.60;;;11.60;70.90;;;;;;5014947;28;20093;-74
2021/05/26 00:54:07;;;;;;;1.90;0.80;;;11.60;71.00;;;;;;5022992;28;20069;-73
2021/05/26 00:56:34;;;;;;;1.85;0.55;;;11.50;71.20;;;;;;5038668;28;20025;-74
2021/05/26 00:59:02;;;;;;;1.55;0.52;;;11.50;71.20;;;;;;5043575;28;20541;-73
2021/05/26 01:01:27;;;;;;;3.42;0.90;;;11.50;71.20;;;;;;5031273;28;20179;-74
2021/05/26 01:03:56;;;;;;;1.10;0.63;;;11.50;71.50;;;;;;5047789;28;20436;-74
2021/05/26 01:06:22;;;;;;;4.60;1.27;;;11.50;71.70;;;;;;5038220;28;20096;-73
2021/05/26 01:08:48;;;;;;;1.50;0.60;;;11.50;71.70;;;;;;5031684;28;20057;-74
2021/05/26 01:11:13;;;;;;;2.05;0.70;;;11.50;71.70;;;;;;5038845;28;20428;-73
2021/05/26 01:13:39;;;;;;;1.73;0.65;;;11.50;71.60;;;;;;5043734;28;20083;-74
2021/05/26 01:16:05;;;;;;;2.13;0.77;;;11.60;71.80;;;;;;5043827;28;20034;-73
2021/05/26 01:18:35;;;;;;;4.93;0.57;;;11.50;72.50;;;;;;5032478;28;20108;-73
2021/05/26 01:21:04;;;;;;;4.30;0.65;;;11.60;73.00;;;;;;5039845;28;20499;-74
2021/05/26 01:23:30;;;;;;;4.25;0.75;;;11.50;74.80;;;;;;5051344;28;20037;-74
2021/05/26 01:25:58;;;;;;;5.57;0.82;;;11.50;75.40;;;;;;5043835;28;20044;-74
2021/05/26 01:28:26;;;;;;;1.92;1.08;;;11.40;76.10;;;;;;5048316;28;20409;-73
2021/05/26 01:30:52;;;;;;;2.35;0.85;;;11.30;75.80;;;;;;5032063;28;20105;-74
2021/05/26 01:33:18;;;;;;;2.03;0.68;;;11.30;76.50;;;;;;5042964;28;20033;-73
2021/05/26 01:35:46;;;;;;;5.40;1.10;;;11.30;76.90;;;;;;5019556;28;20040;-73
2021/05/26 01:38:13;;;;;;;2.95;1.25;;;11.30;77.90;;;;;;5036869;28;20064;-73
2021/05/26 01:40:39;;;;;;;5.82;0.80;;;11.20;78.50;;;;;;5050768;28;20037;-73
2021/05/26 01:43:04;;;;;;;2.58;0.70;;;11.20;78.80;;;;;;5049801;28;20898;-73
2021/05/26 01:45:30;;;;;;;3.58;0.77;;;11.10;78.90;;;;;;5016480;28;20029;-73
2021/05/26 01:47:56;;;;;;;1.92;0.60;;;11.00;79.00;;;;;;5055228;28;20492;-73
2021/05/26 01:50:21;;;;;;;3.13;0.90;;;11.00;78.60;;;;;;5054092;28;20033;-73
2021/05/26 01:53:05;;;;;;;5.75;0.55;;;11.00;77.70;;;;;;5018054;28;20469;-73
2021/05/26 01:55:32;;;;;;;1.95;0.70;;;11.00;77.40;;;;;;5039682;28;20459;-73
2021/05/26 01:57:58;;;;;;;1.60;0.60;;;11.00;77.40;;;;;;5061204;28;20041;-73
2021/05/26 02:00:25;;;;;;;5.25;0.90;;;11.00;78.10;;;;;;5055276;28;20115;-73
2021/05/26 02:02:51;;;;;;;3.78;0.90;;;10.90;79.00;;;;;;5050018;28;20435;-73
2021/05/26 02:05:18;;;;;;;2.40;0.60;;;10.90;79.20;;;;;;5034322;28;20050;-73
2021/05/26 02:07:44;;;;;;;2.97;0.60;;;10.90;79.90;;;;;;5048381;28;20028;-73
2021/05/26 02:10:16;;;;;;;2.80;0.68;;;10.80;79.00;;;;;;5037221;28;20025;-73
2021/05/26 02:12:45;;;;;;;2.97;0.43;;;10.80;79.30;;;;;;5052979;28;20037;-73
2021/05/26 02:15:13;;;;;;;3.10;0.93;;;10.80;79.60;;;;;;5045750;28;20029;-73
2021/05/26 02:17:39;;;;;;;2.70;0.68;;;10.80;80.20;;;;;;5037990;28;20049;-73
2021/05/26 02:20:07;;;;;;;4.50;0.98;;;10.70;80.90;;;;;;5017576;28;20084;-73
2021/05/26 02:22:34;;;;;;;2.55;0.88;;;10.60;81.70;;;;;;5051376;28;20031;-73
2021/05/26 02:25:00;;;;;;;3.28;0.70;;;10.60;82.20;;;;;;5049986;28;20037;-73
2021/05/26 02:27:26;;;;;;;2.50;0.50;;;10.60;82.70;;;;;;5028443;28;20021;-73
2021/05/26 02:29:51;;;;;;;3.92;0.70;;;10.60;83.00;;;;;;5052549;28;20040;-74
2021/05/26 02:32:17;;;;;;;2.58;0.80;;;10.60;83.60;;;;;;5045979;28;20030;-72
2021/05/26 02:34:43;;;;;;;3.78;0.90;;;10.50;84.20;;;;;;5053125;28;20033;-76
2021/05/26 02:37:08;;;;;;;3.00;0.77;;;10.60;84.30;;;;;;5042466;28;20470;-74
2021/05/26 02:39:34;;;;;;;3.70;0.60;;;10.50;84.80;;;;;;5019199;28;20063;-72
2021/05/26 02:42:00;;;;;;;6.60;0.93;;;10.60;84.50;;;;;;5034551;28;20113;-74
2021/05/26 02:44:26;;;;;;;4.25;0.90;;;10.50;84.80;;;;;;5036540;28;20522;-74
2021/05/26 02:46:52;;;;;;;3.10;0.90;;;10.60;85.00;;;;;;5042715;28;20025;-73
2021/05/26 02:49:17;;;;;;;3.80;0.90;;;10.50;85.10;;;;;;5045443;28;20028;-73
2021/05/26 02:51:43;;;;;;;4.32;0.75;;;10.50;85.80;;;;;;5043551;28;20032;-74
2021/05/26 02:54:09;;;;;;;1.85;0.60;;;10.50;86.40;;;;;;5023634;28;20037;-72
2021/05/26 02:56:36;;;;;;;5.03;1.10;;;10.50;86.90;;;;;;5039640;28;20040;-74
2021/05/26 02:59:04;;;;;;;4.00;0.73;;;10.50;87.50;;;;;;5052456;28;20053;-73
2021/05/26 03:01:30;;;;;;;2.53;0.57;;;10.60;89.30;;;;;;5020838;28;20029;-74
2021/05/26 03:03:56;;;;;;;3.22;0.68;;;10.50;90.20;;;;;;5053829;28;20068;-74
2021/05/26 03:06:22;;;;;;;2.30;0.63;;;10.50;91.40;;;;;;5039140;28;20029;-73
2021/05/26 03:08:47;;;;;;;5.60;1.40;;;10.50;92.40;;;;;;5041116;28;20075;-74
2021/05/26 03:11:13;;;;;;;3.17;0.90;;;10.40;93.30;;;;;;5051889;28;20371;-72
2021/05/26 03:13:39;;;;;;;2.53;0.60;;;10.30;93.90;;;;;;5040970;28;20037;-74
2021/05/26 03:16:08;;;;;;;2.88;0.75;;;10.20;94.70;;;;;;5035006;28;20113;-75
2021/05/26 03:18:33;;;;;;;7.88;0.90;;;10.20;95.00;;;;;;5052199;28;20063;-73
2021/05/26 03:20:59;;;;;;;2.38;0.68;;;10.20;95.00;;;;;;5049431;28;20060;-73
2021/05/26 03:23:24;;;;;;;2.67;0.90;;;10.20;95.40;;;;;;5051264;28;20525;-74
2021/05/26 03:25:50;;;;;;;2.33;0.60;;;10.20;95.90;;;;;;5053955;28;20339;-73
2021/05/26 03:28:17;;;;;;;3.85;0.88;;;10.20;96.20;;;;;;5034844;28;20060;-73
2021/05/26 03:30:45;;;;;;;3.85;0.90;;;10.20;96.10;;;;;;5036427;28;20037;-73
2021/05/26 03:33:11;;;;;;;3.53;1.00;;;10.20;96.50;;;;;;5048725;28;20119;-72
2021/05/26 03:35:42;;;;;;;3.90;0.70;;;10.10;97.10;;;;;;5042662;28;20470;-73
2021/05/26 03:38:09;;;;;;;3.17;1.00;;;10.20;97.00;;;;;;5050149;28;20050;-73
2021/05/26 03:40:35;;;;;;;3.72;0.93;;;10.10;96.90;;;;;;5038651;28;20029;-73
2021/05/26 03:43:02;;;;;;;4.28;0.90;;;10.10;97.10;;;;;;5018103;28;20435;-73
2021/05/26 03:45:27;;;;;;;3.35;0.95;;;10.10;96.20;;;;;;5040545;28;20025;-73
2021/05/26 03:47:53;;;;;;;5.38;0.85;;;10.10;95.50;;;;;;5046844;28;20245;-74
2021/05/26 03:50:19;;;;;;;3.58;1.10;;;10.10;95.50;;;;;;5041892;28;20033;-76
2021/05/26 03:52:47;;;;;;;3.53;1.25;;;10.10;95.10;;;;;;5048310;28;20025;-73
2021/05/26 03:55:16;;;;;;;3.70;1.00;;;10.20;94.60;;;;;;5033935;28;20037;-73
2021/05/26 03:57:42;;;;;;;0.95;0.70;;;10.20;94.80;;;;;;5040720;28;20099;-73
2021/05/26 04:00:13;;;;;;;3.00;1.23;;;10.20;94.80;;;;;;5034830;28;20034;-73
2021/05/26 04:02:39;;;;;;;4.63;1.02;;;10.20;94.70;;;;;;5036706;28;20041;-73
2021/05/26 04:05:05;;;;;;;4.07;0.90;;;10.30;94.80;;;;;;5035873;28;20038;-73
2021/05/26 04:07:31;;;;;;;3.85;0.80;;;10.30;94.60;;;;;;5045906;28;20028;-73
2021/05/26 04:09:57;;;;;;;4.90;0.90;;;10.30;94.50;;;;;;5043597;28;20040;-74
2021/05/26 04:12:24;;;;;;;4.32;1.15;;;10.30;94.80;;;;;;5044431;28;20034;-73
2021/05/26 04:14:51;;;;;;;3.38;1.05;;;10.30;95.00;;;;;;5037080;28;20033;-74
2021/05/26 04:17:17;;;;;;;7.65;0.88;;;10.30;95.40;;;;;;5050533;28;20104;-73
2021/05/26 04:19:42;;;;;;;1.50;0.85;;;10.40;94.90;;;;;;5040327;28;20101;-73
2021/05/26 04:22:08;;;;;;;3.17;0.98;;;10.40;95.40;;;;;;5033422;28;20463;-74
2021/05/26 04:24:33;;;;;;;6.18;1.08;;;10.30;95.40;;;;;;5040950;28;20045;-73
2021/05/26 04:26:59;;;;;;;5.15;0.85;;;10.40;95.60;;;;;;5044072;28;20061;-74
2021/05/26 04:29:28;;;;;;;4.05;0.90;;;10.40;96.00;;;;;;5040990;28;20455;-74
2021/05/26 04:31:57;;;;;;;3.08;0.85;;;10.40;96.50;;;;;;5041673;28;20046;-73
2021/05/26 04:34:23;;;;;;;3.45;0.80;;;10.40;96.30;;;;;;5041102;28;20033;-74
2021/05/26 04:36:48;;;;;;;6.65;0.85;;;10.40;97.00;;;;;;5044167;28;20220;-73
2021/05/26 04:39:14;;;;;;;4.68;1.05;;;10.40;97.00;;;;;;5043017;28;20029;-72
2021/05/26 04:41:40;;;;;;;1.88;0.70;;;10.40;98.10;;;;;;5045160;28;20032;-74
2021/05/26 04:44:06;;;;;;;1.92;0.90;;;10.40;98.70;;;;;;5046528;28;20455;-74
2021/05/26 04:46:31;;;;;;;3.67;1.00;;;10.30;99.00;;;;;;5045230;28;20104;-73
2021/05/26 04:48:57;;;;;;;2.33;0.63;;;10.30;99.10;;;;;;5045250;28;20025;-74
2021/05/26 04:51:23;;;;;;;2.25;0.80;;;10.20;99.90;;;;;;5040439;28;20048;-74
2021/05/26 04:53:48;;;;;;;3.45;0.85;;;10.20;99.90;;;;;;5041149;28;20045;-74
2021/05/26 04:56:17;;;;;;;5.55;1.10;;;10.20;99.90;;;;;;5039465;28;20037;-73
2021/05/26 04:58:42;;;;;;;2.47;1.10;;;10.10;99.90;;;;;;5039088;28;20060;-74
2021/05/26 05:01:09;;;;;;;6.65;1.00;;;10.10;99.90;;;;;;5043155;28;20025;-75
2021/05/26 05:03:35;;;;;;;1.73;0.68;;;10.00;99.90;;;;;;5042148;28;20604;-75
2021/05/26 05:06:00;;;;;;;2.72;0.95;;;10.00;99.90;;;;;;5041792;28;20112;-75
2021/05/26 05:08:26;;;;;;;3.45;1.00;;;10.00;99.90;;;;;;5038224;28;20043;-75
2021/05/26 05:10:55;;;;;;;4.03;1.30;;;10.00;99.90;;;;;;5043108;28;20037;-75
2021/05/26 05:13:22;;;;;;;3.28;0.88;;;10.00;99.90;;;;;;5040633;28;20120;-74
2021/05/26 05:15:47;;;;;;;5.25;0.90;;;9.90;99.90;;;;;;5042231;28;20025;-74
2021/05/26 05:18:13;;;;;;;8.98;1.33;;;9.90;99.90;;;;;;5043712;28;20103;-74
2021/05/26 05:20:39;;;;;;;4.07;1.00;;;9.90;99.90;;;;;;5051465;28;20028;-74
2021/05/26 05:23:04;;;;;;;3.88;1.35;;;9.80;99.90;;;;;;5050952;28;20065;-74
2021/05/26 05:25:30;;;;;;;3.25;1.15;;;9.80;99.90;;;;;;5025859;28;20026;-74
2021/05/26 05:27:56;;;;;;;5.88;1.10;;;9.80;99.90;;;;;;5014057;28;20034;-73
2021/05/26 05:30:22;;;;;;;5.47;1.13;;;9.80;99.90;;;;;;5031404;28;20032;-75
2021/05/26 05:32:48;;;;;;;6.28;0.90;;;9.70;99.90;;;;;;5031420;28;20033;-75
2021/05/26 05:35:14;;;;;;;2.95;0.82;;;9.70;99.90;;;;;;5041158;28;20033;-73
2021/05/26 05:37:40;;;;;;;3.40;1.02;;;9.70;99.90;;;;;;5045245;28;20025;-75
2021/05/26 05:40:06;;;;;;;5.68;1.10;;;9.80;99.90;;;;;;5032976;28;20105;-76
2021/05/26 05:42:35;;;;;;;3.97;0.70;;;9.70;99.90;;;;;;5043954;28;20025;-76
2021/05/26 05:45:01;;;;;;;1.80;0.70;;;9.80;99.90;;;;;;5031707;28;20363;-75
2021/05/26 05:47:27;;;;;;;4.82;1.05;;;9.80;99.90;;;;;;5050606;28;20043;-80
2021/05/26 05:49:53;;;;;;;1.25;0.88;;;9.90;99.90;;;;;;5050249;28;20506;-76
2021/05/26 05:52:18;;;;;;;2.30;0.80;;;9.90;99.90;;;;;;5031707;28;20402;-75
2021/05/26 05:54:44;;;;;;;3.83;1.30;;;9.90;99.90;;;;;;5050963;28;20041;-73
2021/05/26 05:57:10;;;;;;;2.85;0.90;;;9.90;99.90;;;;;;5060595;28;20077;-76
2021/05/26 05:59:35;;;;;;;2.72;0.85;;;9.90;99.90;;;;;;5027955;28;20032;-73
2021/05/26 06:02:01;;;;;;;5.53;1.25;;;9.90;99.90;;;;;;5041544;28;20041;-73
2021/05/26 06:04:27;;;;;;;3.55;1.00;;;9.80;99.90;;;;;;5041248;28;20030;-72
2021/05/26 06:06:52;;;;;;;3.92;1.02;;;9.80;99.90;;;;;;5036693;28;20112;-73
2021/05/26 06:09:20;;;;;;;3.85;0.98;;;9.80;99.90;;;;;;5035239;28;20199;-73
2021/05/26 06:11:46;;;;;;;4.90;1.10;;;9.80;99.90;;;;;;5034136;28;20025;-73
2021/05/26 06:14:12;;;;;;;7.47;1.10;;;9.80;99.90;;;;;;5046956;28;20410;-73
2021/05/26 06:16:38;;;;;;;2.33;1.10;;;9.90;99.90;;;;;;5030503;28;20033;-74
2021/05/26 06:19:06;;;;;;;4.40;1.05;;;9.80;99.90;;;;;;5035700;28;20029;-74
2021/05/26 06:21:33;;;;;;;3.25;1.30;;;9.90;99.90;;;;;;5049323;28;20533;-73
2021/05/26 06:24:00;;;;;;;4.90;1.23;;;9.90;99.90;;;;;;5032171;28;20108;-73
2021/05/26 06:26:28;;;;;;;5.13;1.33;;;10.00;99.90;;;;;;5049629;28;20029;-73
2021/05/26 06:28:54;;;;;;;3.00;1.00;;;10.00;99.90;;;;;;5049340;28;20051;-73
2021/05/26 06:31:20;;;;;;;3.95;1.30;;;10.10;99.90;;;;;;5027091;28;20029;-73
2021/05/26 06:33:46;;;;;;;4.32;1.50;;;10.10;99.90;;;;;;5052946;28;20029;-74
2021/05/26 06:36:12;;;;;;;6.28;1.33;;;10.20;99.90;;;;;;5053985;28;20111;-72
2021/05/26 06:38:38;;;;;;;4.15;1.15;;;10.20;99.90;;;;;;5053296;28;20028;-72
2021/05/26 06:41:04;;;;;;;4.90;1.35;;;10.20;99.90;;;;;;5041968;28;20471;-72
2021/05/26 06:43:30;;;;;;;5.80;1.60;;;10.30;99.90;;;;;;5053347;28;20047;-72
2021/05/26 06:45:56;;;;;;;3.45;1.10;;;10.30;99.90;;;;;;5038955;28;20052;-72
2021/05/26 06:48:22;;;;;;;7.45;1.10;;;10.30;99.90;;;;;;5033895;28;20462;-72
2021/05/26 06:50:48;;;;;;;2.33;0.82;;;10.40;99.90;;;;;;5049848;28;20100;-72
2021/05/26 06:53:13;;;;;;;4.57;1.00;;;10.40;99.90;;;;;;5054652;28;20112;-73
2021/05/26 06:55:39;;;;;;;11.55;1.60;;;10.40;99.90;;;;;;5044216;28;20049;-72
2021/05/26 06:58:05;;;;;;;5.90;1.20;;;10.50;99.90;;;;;;5039585;28;20045;-73
2021/05/26 07:00:31;;;;;;;4.25;1.25;;;10.50;99.90;;;;;;5041654;28;20029;-73
2021/05/26 07:02:57;;;;;;;4.45;1.38;;;10.60;99.90;;;;;;5046480;28;20039;-73
2021/05/26 07:05:27;;;;;;;5.13;1.10;;;10.70;99.90;;;;;;5052044;28;20331;-73
2021/05/26 07:07:53;;;;;;;4.53;1.23;;;10.70;99.90;;;;;;5046142;28;20026;-73
2021/05/26 07:10:19;;;;;;;2.70;1.20;;;10.70;99.90;;;;;;5025082;28;20374;-73
2021/05/26 07:12:46;;;;;;;3.65;1.38;;;10.80;99.90;;;;;;5040981;28;20071;-73
2021/05/26 07:15:13;;;;;;;6.13;1.67;;;10.80;99.90;;;;;;5049133;28;20053;-73
2021/05/26 07:17:39;;;;;;;3.90;1.15;;;10.80;99.90;;;;;;5017199;28;20060;-73
2021/05/26 07:20:05;;;;;;;6.25;1.50;;;10.90;99.90;;;;;;5035580;28;20482;-72
2021/05/26 07:22:31;;;;;;;3.38;1.30;;;10.90;99.90;;;;;;5033359;28;20033;-72
2021/05/26 07:24:57;;;;;;;4.70;1.42;;;10.90;99.90;;;;;;5038835;28;20051;-72
2021/05/26 07:27:22;;;;;;;3.83;1.00;;;10.90;99.90;;;;;;5049592;28;20033;-72
2021/05/26 07:29:48;;;;;;;6.32;1.52;;;10.90;99.90;;;;;;5041101;28;20029;-72
2021/05/26 07:32:14;;;;;;;6.68;1.80;;;10.90;99.90;;;;;;5053341;28;20386;-72
2021/05/26 07:34:40;;;;;;;4.00;1.55;;;10.90;99.90;;;;;;5041357;28;20036;-73
2021/05/26 07:37:05;;;;;;;7.47;1.92;;;11.00;99.90;;;;;;5048371;28;20466;-73
2021/05/26 07:39:35;;;;;;;4.53;1.25;;;11.00;99.90;;;;;;5037649;28;20068;-72
2021/05/26 07:42:05;;;;;;;8.98;1.30;;;11.10;99.90;;;;;;5051584;28;20108;-72
2021/05/26 07:44:31;;;;;;;10.80;2.13;;;11.10;99.90;;;;;;5051429;28;20044;-72
2021/05/26 07:46:57;;;;;;;7.32;1.92;;;11.20;99.90;;;;;;5034504;28;20083;-72
2021/05/26 07:49:23;;;;;;;6.30;1.50;;;11.20;99.90;;;;;;5051623;28;20052;-72
2021/05/26 07:51:51;;;;;;;6.97;1.88;;;11.30;99.90;;;;;;5048923;28;20108;-72
2021/05/26 07:54:22;;;;;;;7.25;1.70;;;11.30;98.90;;;;;;5045831;28;20497;-73
2021/05/26 07:56:48;;;;;;;7.63;1.63;;;11.30;99.90;;;;;;5035322;28;20121;-73
2021/05/26 07:59:14;;;;;;;9.65;1.75;;;11.30;98.70;;;;;;5025391;28;20526;-74
2021/05/26 08:01:39;;;;;;;9.50;1.60;;;11.30;99.60;;;;;;5048495;28;20061;-72
2021/05/26 08:04:05;;;;;;;5.05;2.03;;;11.30;97.30;;;;;;5044808;28;20382;-72
2021/05/26 08:06:31;;;;;;;7.13;1.83;;;11.30;97.00;;;;;;5047865;28;20379;-72
2021/05/26 08:08:57;;;;;;;6.22;1.70;;;11.30;96.40;;;;;;5041285;28;20045;-72
2021/05/26 08:11:23;;;;;;;6.80;1.30;;;11.40;97.10;;;;;;5036278;28;20099;-72
2021/05/26 08:13:49;;;;;;;6.97;1.80;;;11.40;95.90;;;;;;5051059;28;20043;-72
2021/05/26 08:16:14;;;;;;;6.00;1.48;;;11.40;96.70;;;;;;5040340;28;20034;-72
2021/05/26 08:18:40;;;;;;;7.85;1.85;;;11.50;96.00;;;;;;5045108;28;20095;-72
2021/05/26 08:21:06;;;;;;;5.80;1.90;;;11.60;96.00;;;;;;5050829;28;20040;-72
2021/05/26 08:23:31;;;;;;;7.15;1.67;;;11.60;94.80;;;;;;5042066;28;20032;-72
2021/05/26 08:25:57;;;;;;;4.50;1.50;;;11.60;95.00;;;;;;5032023;28;20122;-72
2021/05/26 08:28:23;;;;;;;8.55;1.42;;;11.70;94.80;;;;;;5031585;28;20080;-72
2021/05/26 08:30:48;;;;;;;6.05;1.70;;;11.70;95.30;;;;;;5046168;28;20095;-72
2021/05/26 08:33:14;;;;;;;5.60;1.55;;;11.60;94.40;;;;;;5034219;28;20033;-72
2021/05/26 08:35:40;;;;;;;6.45;1.83;;;11.60;94.80;;;;;;5031534;28;20109;-72
2021/05/26 08:38:06;;;;;;;9.18;2.20;;;11.60;95.10;;;;;;5044328;28;20104;-72
2021/05/26 08:40:32;;;;;;;6.47;1.83;;;11.60;94.70;;;;;;5036377;28;20021;-72
2021/05/26 08:42:58;;;;;;;8.63;1.80;;;11.70;94.40;;;;;;5042883;28;20039;-72
2021/05/26 08:45:24;;;;;;;8.50;1.55;;;11.80;94.00;;;;;;5039428;28;20040;-72
2021/05/26 08:47:53;;;;;;;4.28;1.42;;;11.80;93.10;;;;;;5034662;28;20041;-72
2021/05/26 08:50:19;;;;;;;7.50;1.73;;;11.80;93.50;;;;;;5031979;28;20026;-72
2021/05/26 08:52:46;;;;;;;5.65;1.85;;;11.80;93.90;;;;;;5040066;28;20036;-72
2021/05/26 08:55:13;;;;;;;4.50;1.75;;;11.80;93.90;;;;;;5051388;28;20057;-72
2021/05/26 08:57:39;;;;;;;4.93;1.70;;;11.80;92.60;;;;;;5050776;28;20049;-72
2021/05/26 09:00:05;;;;;;;7.43;1.83;;;11.80;92.80;;;;;;5043548;28;20515;-72
2021/05/26 09:02:31;;;;;;;5.80;2.00;;;11.80;92.50;;;;;;5039899;28;20049;-72
2021/05/26 09:05:00;;;;;;;7.80;1.73;;;11.80;92.30;;;;;;5031883;28;20463;-72
2021/05/26 09:07:43;;;;;;;4.82;1.73;;;11.70;92.50;;;;;;5032536;28;20033;-72
2021/05/26 09:10:09;;;;;;;7.82;2.03;;;11.70;93.00;;;;;;5018197;28;20115;-72
2021/05/26 09:12:42;;;;;;;5.60;1.95;;;11.70;92.30;;;;;;5052660;28;20029;-73
2021/05/26 09:15:15;;;;;;;8.00;2.00;;;11.70;92.40;;;;;;5047374;28;20355;-72
2021/05/26 09:17:42;;;;;;;8.05;2.00;;;11.70;92.40;;;;;;5040394;28;20030;-72
2021/05/26 09:20:23;;;;;;;9.05;2.20;;;11.80;93.60;;;;;;5035311;28;20033;-73
2021/05/26 09:23:01;;;;;;;7.40;1.70;;;11.80;92.80;;;;;;5041296;28;20549;-72
2021/05/26 09:25:31;;;;;;;6.88;1.90;;;11.80;91.70;;;;;;5040192;28;20041;-73
2021/05/26 09:28:18;;;;;;;6.25;1.67;;;11.70;92.80;;;;;;5019306;28;20082;-73
2021/05/26 09:30:45;;;;;;;7.00;1.70;;;11.70;93.20;;;;;;5031636;28;20044;-73
2021/05/26 09:33:52;;;;;;;4.32;1.42;;;11.70;92.30;;;;;;5050527;28;20089;-72
2021/05/26 09:36:22;;;;;;;4.72;1.52;;;11.80;92.00;;;;;;5038967;28;20045;-74
2021/05/26 09:38:53;;;;;;;7.18;1.20;;;11.90;92.60;;;;;;5031774;28;20029;-73
2021/05/26 09:41:29;;;;;;;4.90;1.60;;;11.90;92.30;;;;;;5044315;28;20037;-73
2021/05/26 09:44:05;;;;;;;6.03;2.28;;;12.00;91.20;;;;;;5036611;28;20033;-73
2021/05/26 09:46:42;;;;;;;5.10;1.63;;;11.90;91.90;;;;;;5039906;28;20465;-73
2021/05/26 09:49:19;;;;;;;6.88;1.20;;;11.90;91.80;;;;;;5046840;28;20017;-73
2021/05/26 09:51:50;;;;;;;3.38;1.20;;;11.90;91.70;;;;;;5041304;28;20064;-72
2021/05/26 09:54:26;;;;;;;2.28;0.80;;;11.90;90.40;;;;;;5032532;28;20029;-72
2021/05/26 09:56:54;;;;;;;2.53;1.08;;;12.00;90.40;;;;;;5041318;28;20474;-72
2021/05/26 09:59:21;;;;;;;2.60;0.80;;;12.00;89.40;;;;;;5050626;28;20033;-73
2021/05/26 10:01:51;;;;;;;3.75;0.82;;;12.00;86.50;;;;;;5032415;28;20025;-73
2021/05/26 10:04:16;;;;;;;3.88;1.20;;;12.10;87.80;;;;;;5043315;28;20113;-73
2021/05/26 10:06:43;;;;;;;2.95;1.23;;;12.20;85.80;;;;;;5050139;28;20683;-73
2021/05/26 10:09:11;;;;;;;2.22;0.80;;;12.30;86.50;;;;;;5037095;28;20083;-73
2021/05/26 10:11:37;;;;;;;3.25;0.80;;;12.30;87.00;;;;;;5050208;28;20532;-74
2021/05/26 10:14:11;;;;;;;2.42;0.80;;;12.50;85.80;;;;;;5037784;28;20075;-72
2021/05/26 10:16:41;;;;;;;4.38;0.77;;;12.60;84.20;;;;;;5040371;28;20029;-73
2021/05/26 10:19:07;;;;;;;1.25;0.60;;;12.70;85.70;;;;;;5055963;28;20454;-72
2021/05/26 10:21:34;;;;;;;2.15;0.95;;;12.70;84.90;;;;;;5021304;28;20030;-73
2021/05/26 10:24:05;;;;;;;2.55;0.60;;;12.70;82.30;;;;;;5039874;28;20470;-73
2021/05/26 10:26:50;;;;;;;1.55;0.50;;;12.70;82.30;;;;;;5040542;28;20041;-73
2021/05/26 10:29:39;;;;;;;2.72;0.80;;;12.70;83.30;;;;;;5042738;28;20377;-73
2021/05/26 10:32:07;;;;;;;4.68;1.20;;;12.90;83.70;;;;;;5031491;28;20440;-73
2021/05/26 10:34:42;;;;;;;3.40;0.85;;;13.00;81.10;;;;;;5045349;28;20037;-73
2021/05/26 10:37:09;;;;;;;0.90;0.50;;;12.90;81.30;;;;;;5036549;28;20087;-73
2021/05/26 10:39:35;;;;;;;2.35;0.65;;;12.90;79.20;;;;;;5033832;28;20022;-72
2021/05/26 10:42:01;;;;;;;0.60;0.50;;;12.80;79.80;;;;;;5034751;28;20034;-73
2021/05/26 10:44:57;;;;;;;2.25;0.70;;;12.80;80.60;;;;;;5039521;28;20029;-74
2021/05/26 10:47:38;;;;;;;1.15;0.50;;;12.80;81.20;;;;;;5019366;28;20084;-73
2021/05/26 10:50:14;;;;;;;2.40;0.60;;;12.80;81.40;;;;;;5040299;28;20059;-73
2021/05/26 10:53:09;;;;;;;3.20;0.60;;;12.80;82.00;;;;;;5046688;28;20466;-73
2021/05/26 10:55:38;;;;;;;4.20;0.82;;;12.80;81.20;;;;;;5027000;28;20060;-73
2021/05/26 10:58:31;;;;;;;2.08;1.02;;;13.00;82.10;;;;;;5034121;28;20503;-73
2021/05/26 11:00:56;;;;;;;3.47;0.63;;;13.10;81.10;;;;;;5041812;28;20030;-73
2021/05/26 11:03:28;;;;;;;2.33;0.50;;;13.30;80.40;;;;;;5041084;28;20196;-73
2021/05/26 11:05:58;;;;;;;3.40;0.70;;;13.40;77.30;;;;;;5039145;28;20100;-73
2021/05/26 11:08:47;;;;;;;4.47;0.77;;;13.50;76.40;;;;;;5043787;28;20520;-73
2021/05/26 11:11:24;;;;;;;4.70;0.77;;;13.50;77.50;;;;;;5040666;28;20029;-73
2021/05/26 11:14:13;;;;;;;1.40;0.70;;;13.50;77.60;;;;;;5049780;28;20082;-72
2021/05/26 11:16:47;;;;;;;2.10;0.75;;;13.50;78.60;;;;;;5032885;28;20122;-73
2021/05/26 11:19:24;;;;;;;1.23;0.55;;;13.30;78.80;;;;;;5017352;28;20065;-73
2021/05/26 11:22:01;;;;;;;1.05;0.65;;;13.20;79.50;;;;;;5021648;28;20163;-73
2021/05/26 11:24:32;;;;;;;2.35;0.77;;;13.10;80.60;;;;;;5035631;28;20036;-73
2021/05/26 11:27:02;;;;;;;1.77;1.00;;;13.10;80.50;;;;;;5038520;28;20029;-73
2021/05/26 11:29:33;;;;;;;0.70;0.63;;;13.10;80.60;;;;;;5050235;28;20064;-73
2021/05/26 11:32:11;;;;;;;1.08;0.60;;;13.10;80.60;;;;;;5041384;28;20029;-73
2021/05/26 11:34:39;;;;;;;0.70;0.65;;;13.10;78.90;;;;;;5034519;28;20037;-73
2021/05/26 11:37:07;;;;;;;2.83;0.95;;;13.10;79.10;;;;;;5039902;28;20044;-73
2021/05/26 11:39:33;;;;;;;3.28;0.80;;;13.20;77.70;;;;;;5035149;28;20112;-72
2021/05/26 11:42:10;;;;;;;1.52;0.75;;;13.20;77.60;;;;;;5043469;28;20037;-73
2021/05/26 11:44:41;;;;;;;1.50;0.80;;;13.20;77.90;;;;;;5038821;28;20099;-73
2021/05/26 11:47:07;;;;;;;2.85;0.90;;;13.20;78.10;;;;;;5043504;28;20032;-73
2021/05/26 11:49:35;;;;;;;2.13;0.70;;;13.30;78.40;;;;;;5042392;28;20020;-73
2021/05/26 11:52:09;;;;;;;3.58;1.00;;;13.30;78.30;;;;;;5032557;28;20029;-73
2021/05/26 11:54:51;;;;;;;5.00;1.10;;;13.40;78.50;;;;;;5041311;28;20029;-73
2021/05/26 11:57:16;;;;;;;4.03;0.90;;;13.50;77.50;;;;;;5049961;28;20500;-73
2021/05/26 11:59:52;;;;;;;2.13;0.90;;;13.40;78.10;;;;;;5051543;28;20025;-73
2021/05/26 12:02:18;;;;;;;1.88;0.75;;;13.50;79.80;;;;;;5045499;28;20053;-73
2021/05/26 12:04:44;;;;;;;1.67;0.85;;;13.70;80.80;;;;;;5033652;28;20037;-73
2021/05/26 12:07:10;;;;;;;2.67;0.80;;;13.90;80.30;;;;;;5046677;28;20051;-74
2021/05/26 12:09:36;;;;;;;1.58;0.52;;;14.00;80.00;;;;;;5066394;28;20033;-73
2021/05/26 12:12:17;;;;;;;2.35;0.50;;;14.00;78.90;;;;;;5065326;28;20018;-74
2021/05/26 12:14:45;;;;;;;1.23;0.80;;;14.10;80.10;;;;;;5050410;28;20041;-73
2021/05/26 12:17:13;;;;;;;1.20;0.70;;;14.20;81.40;;;;;;5041615;28;20099;-73
2021/05/26 12:19:39;;;;;;;1.42;0.70;;;14.20;80.00;;;;;;5025766;28;20032;-73
2021/05/26 12:22:18;;;;;;;2.05;0.63;;;14.20;81.80;;;;;;5043800;28;20385;-73
2021/05/26 12:25:01;;;;;;;2.00;1.00;;;14.30;73.90;;;;;;5047938;28;20128;-73
2021/05/26 12:27:44;;;;;;;2.15;0.63;;;14.40;73.00;;;;;;5045887;28;20029;-73
2021/05/26 12:30:13;;;;;;;1.80;0.77;;;14.50;72.90;;;;;;5050419;28;20037;-73
2021/05/26 12:32:39;;;;;;;4.05;0.90;;;14.80;71.90;;;;;;5049253;28;20033;-73
2021/05/26 12:35:17;;;;;;;4.68;1.20;;;15.00;71.70;;;;;;5039400;28;20091;-73
2021/05/26 12:37:46;;;;;;;1.48;0.60;;;15.30;80.00;;;;;;5031265;28;20061;-73
2021/05/26 12:40:31;;;;;;;1.27;0.50;;;15.50;78.90;;;;;;5032591;28;20434;-73
2021/05/26 12:42:59;;;;;;;2.00;0.47;;;15.80;67.40;;;;;;5044592;28;20043;-72
2021/05/26 12:45:29;;;;;;;2.40;0.75;;;15.80;67.20;;;;;;5024092;28;20351;-73
2021/05/26 12:47:58;;;;;;;3.33;0.65;;;15.70;67.70;;;;;;5067121;28;20009;-73
2021/05/26 12:50:28;;;;;;;1.17;0.43;;;15.70;67.00;;;;;;5072739;28;20053;-74
2021/05/26 12:53:09;;;;;;;2.08;0.68;;;15.60;66.80;;;;;;5053485;28;20108;-72